Welcome to our new website - Welkom op onze vernieuwde website - Bienvenue sur notre nouveau site web - Willkommen auf unserer neuen Website
Check our progress frequently. Prüfen Sie unsere Fortschritte regelmäßig. Consultez notre progression fréquemment. Komt u straks nog eens

KNMI Weersverwachting is alleen beschikbaar in de Nederlandse Taal, Ongeacht welke taal u kiest.
KNMI weather forecast is only available in the Dutch language, No matter what language you choose.







Meteo Oudkarspel - De weer weet site voor Langedijk

Blijf op de hoogte van het actuele weer, Keep up to date with the current weather.



Lokaal brandgevaar
CBI


Regionaal natuur brand risico: Meer informatie


Mijn Webcam 1 Meer informatie My webcam


Mijn Webcam 2 Meer informatie My webcam 2


Onweer radar Meer informatie blitzortung!


Regen radar Meer informatie rain snow radar


Bezoek onze andere website:

Template - Davis WeatherLink Version
Vantage Veu

Template - Meteotemplate

Template - HomeWeatherStation

PDøROK Multimedia

Meteo Broek Op Langedijk

Visual FM - Serious Internet RadioVisual FM - Serious Internet Radio

Lief LangedijkLief Langedijk

Dé fietsenmaker van Langedijk en omstrekenAxel Noort dé fietsenmaker

Ijsvereniging Volharding

Meteo Tuitjenhorn

Meteo Delfzijl

Weerstation Noordbergum

Weerstation ParkstadWeerstation Parkstad



Het weer levert geen direct gevaar op.    Er zijn geen waarschuwingen afgegeven.

METAR rapporten vliegvelden

   
EHKD - De Kooy (navy), Netherlands
Afstand tot: N 23 km
Gewijzigd: 25-Nov-2020 03:25
Bewolking  
Bewolking  
   Wind: Zuiden 14.8 km/h
Wind: Zuiden 14.8 km/h
Temperatuur: 5°C
Voelt als: 2°C
Dauwpunt: 4°C
Vochtigheid: 93%
Barometer: 1014 hPa
Bewolking: Bewolking
Zicht: meer dan 10 km
Bewolking: Bewolking 16000 ft
EHKD 250225Z AUTO 18008KT 9999 OVC160 05/04 Q1014 BLU
EHAM - Amsterdam/Schiph, Netherlands
Afstand tot: Z 44 km
Gewijzigd: 25-Nov-2020 03:25
Helder  
Helder  
   Wind: ZZO 16.7 km/h
Wind: ZZO 16.7 km/h
Temperatuur: 5°C
Voelt als: 2°C
Dauwpunt: 3°C
Vochtigheid: 87%
Barometer: 1014 hPa
Zicht: meer dan 10 km
Bewolking: Helder
EHAM 250225Z 16009KT CAVOK 05/03 Q1014 NOSIG
EHQE - Hoorn-A Sea, Netherlands
Afstand tot: WNW 50 km
Gewijzigd: 25-Nov-2020 03:25
  
  
   Wind: ZZO 44.4 km/h
Wind: ZZO 44.4 km/h
Temperatuur: 10°C
Voelt als: 6°C
Dauwpunt: 7°C
Vochtigheid: 82%
Barometer: 1012 hPa
EHQE 250225Z AUTO 16024KT //// // ////// 10/07 Q1012 RE//
EHVL - Vlieland Island, Netherlands
Afstand tot: N 58 km
Gewijzigd: 25-Nov-2020 03:25
Bewolking  
Bewolking  
   Wind: Zuiden 29.6 km/h
Wind: Zuiden 29.6 km/h
Temperatuur: 7°C
Voelt als: 3°C
Dauwpunt: 5°C
Vochtigheid: 87%
Barometer: 1013 hPa
Bewolking: Bewolking
Zicht: meer dan 10 km
Bewolking: Bewolking 18000 ft
EHVL 250225Z AUTO 19016KT 9999 OVC180 07/05 Q1013 BLU
EHLW - Leeuwarden Rnlaf, Netherlands
Afstand tot: NO 85 km
Gewijzigd: 25-Nov-2020 03:25
Nevel, Gedeeltelijk bewolkt  
Nevel, Gedeeltelijk bewolkt  
   Wind: Zuiden 18.5 km/h
Wind: Zuiden 18.5 km/h
Temperatuur: 5°C
Voelt als: 1°C
Dauwpunt: 3°C
Vochtigheid: 87%
Barometer: 1014 hPa
Bewolking: Gedeeltelijk bewolkt
Zicht: 7 km
Bewolking: Gedeeltelijk bewolkt 16000 ft
EHLW 250225Z AUTO 17010KT 140V210 7000 BR SCT160 05/03 Q1014 WHT
EHRD - Rotterdam Airpor, Netherlands
Afstand tot: ZZW 88 km
Gewijzigd: 25-Nov-2020 03:25
Gedeeltelijk bewolkt  
Gedeeltelijk bewolkt  
   Wind: Zuiden 18.5 km/h
Wind: Zuiden 18.5 km/h
Temperatuur: 6°C
Voelt als: 3°C
Dauwpunt: 4°C
Vochtigheid: 87%
Barometer: 1014 hPa
Bewolking: Gedeeltelijk bewolkt
Zicht: meer dan 10 km
Bewolking: Gedeeltelijk bewolkt
EHRD 250225Z AUTO 17010KT 9999 NSC 06/04 Q1014 NOSIG
EHKV - K14-Fa-1c Sea, Netherlands
Afstand tot: NW 100 km
Gewijzigd: 25-Nov-2020 03:25
Licht bewolkt  
Licht bewolkt  
   Wind: ZZW 46.3 km/h
Wind: ZZW 46.3 km/h
Temperatuur: 11°C
Dauwpunt: 9°C
Vochtigheid: 88%
Barometer: 1013 hPa
Bewolking: Licht bewolkt
Zicht: meer dan 10 km
Bewolking: Licht bewolkt 1200 ft
EHKV 250225Z AUTO 21025KT 9999 FEW012 11/09 Q1013
EHMG - L9-Ff-1 Sea, Netherlands
Afstand tot: N 101 km
Gewijzigd: 25-Nov-2020 03:25
Gedeeltelijk bewolkt  
Gedeeltelijk bewolkt  
   Wind: Zuiden 40.7 km/h
Wind: Zuiden 40.7 km/h
Temperatuur: 9°C
Voelt als: 4°C
Dauwpunt: 6°C
Vochtigheid: 82%
Barometer: 1014 hPa
Bewolking: Gedeeltelijk bewolkt
Zicht: meer dan 10 km
Bewolking: Licht bewolkt 900 ft,
Gedeeltelijk bewolkt 1000 ft
EHMG 250225Z AUTO 19022KT 9999 FEW009 SCT010 09/06 Q1014
EHDL - Deelen Rnlafb, Netherlands
Afstand tot: ZO 102 km
Gewijzigd: 25-Nov-2020 03:25
Nevel, Bewolking  
Nevel, Bewolking  
   Wind: ZZO 11.1 km/h
Wind: ZZO 11.1 km/h
Temperatuur: 4°C
Voelt als: 1°C
Dauwpunt: 4°C
Vochtigheid: 100%
Barometer: 1016 hPa
Bewolking: Bewolking
Zicht: 8 km
Bewolking: Bewolking 19000 ft
EHDL 250225Z AUTO 16006KT 110V200 8000 BR OVC190 04/04 Q1016 BLU
EHPG - P11-B Sea, Netherlands
Afstand tot: WZW 106 km
Gewijzigd: 25-Nov-2020 03:25
Gedeeltelijk bewolkt  
Gedeeltelijk bewolkt  
   Wind: Zuiden 50 km/h
Wind: Zuiden 50 km/h
Temperatuur: 11°C
Dauwpunt: 7°C
Vochtigheid: 77%
Barometer: 1012 hPa
Bewolking: Gedeeltelijk bewolkt
Zicht: meer dan 10 km
Bewolking: Gedeeltelijk bewolkt
EHPG 250225Z AUTO 19027KT 160V240 9999 NSC 11/07 Q1012
EHMA - Awg-1 Sea, Netherlands
Afstand tot: NO 116 km
Gewijzigd: 25-Nov-2020 03:25
Gedeeltelijk bewolkt  
Gedeeltelijk bewolkt  
   Wind: Zuiden 37 km/h
Wind: Zuiden 37 km/h
Temperatuur: 6°C
Voelt als: 1°C
Dauwpunt: 4°C
Vochtigheid: 87%
Barometer: 1014 hPa
Bewolking: Gedeeltelijk bewolkt
Zicht: meer dan 10 km
Bewolking: Gedeeltelijk bewolkt
EHMA 250225Z AUTO 19020KT 9999 NSC 06/04 Q1014
EHSC - Goeree Le Sea, Netherlands
Afstand tot: ZW 116 km
Gewijzigd: 25-Nov-2020 03:25
  
  
   Wind: ZZW 37 km/h
Wind: ZZW 37 km/h
Temperatuur: 8°C
Voelt als: 3°C
Dauwpunt: 5°C
Vochtigheid: 82%
Barometer: 1014 hPa
Zicht: meer dan 10 km
EHSC 250225Z AUTO 20020KT 9999 ///////// 08/05 Q1014 W12/H9
EHJR - K13-A Sea, Netherlands
Afstand tot: WNW 120 km
Gewijzigd: 25-Nov-2020 03:25
  
  
   Wind: Kalm
Wind: Kalm
Temperatuur: 11°C
Dauwpunt: 9°C
Vochtigheid: 88%
Barometer: 1012 hPa
EHJR 250225Z AUTO 00000KT //// // ///////// 11/09 Q1012 RE// W12/H17
EHGG - Groningen/Eelde, Netherlands
Afstand tot: ONO 126 km
Gewijzigd: 25-Nov-2020 03:25
Gedeeltelijk bewolkt  
Gedeeltelijk bewolkt  
   Wind: Zuiden 16.7 km/h
Wind: Zuiden 16.7 km/h
Temperatuur: 4°C
Voelt als: 0°C
Dauwpunt: 3°C
Vochtigheid: 93%
Barometer: 1015 hPa
Bewolking: Gedeeltelijk bewolkt
Zicht: 7 km
Bewolking: Gedeeltelijk bewolkt
EHGG 250225Z AUTO 17009KT 140V210 7000 NSC 04/03 Q1015
EHGR - Gilze-Rijen Rnla, Netherlands
Afstand tot: Z 128 km
Gewijzigd: 25-Nov-2020 03:25
Bewolking  
Bewolking  
   Wind: ZZO 14.8 km/h
Wind: ZZO 14.8 km/h
Temperatuur: 5°C
Voelt als: 2°C
Dauwpunt: 3°C
Vochtigheid: 87%
Barometer: 1015 hPa
Bewolking: Bewolking
Zicht: meer dan 10 km
Bewolking: Bewolking 19000 ft
EHGR 250225Z AUTO 16008KT 110V180 9999 OVC190 05/03 Q1015 BLU
EHSA - Euro Platform, Netherlands
Afstand tot: ZW 130 km
Gewijzigd: 25-Nov-2020 03:25
  
  
   Wind: Zuiden 40.7 km/h
Wind: Zuiden 40.7 km/h
Temperatuur: 9°C
Voelt als: 4°C
Dauwpunt: 6°C
Vochtigheid: 82%
Barometer: 1013 hPa
Zicht: meer dan 10 km
EHSA 250225Z AUTO 17022KT 9999 ///////// 09/06 Q1013 W11/H13
EHVK - Volkel Rnlafb, Netherlands
Afstand tot: ZZO 135 km
Gewijzigd: 25-Nov-2020 03:25
Bewolking  
Bewolking  
   Wind: ZZO 11.1 km/h
Wind: ZZO 11.1 km/h
Temperatuur: 4°C
Voelt als: 1°C
Dauwpunt: 3°C
Vochtigheid: 93%
Barometer: 1016 hPa
Bewolking: Bewolking
Bewolking: Bewolking 20000 ft
EHVK 250225Z AUTO 15006KT //// // OVC200 04/03 Q1016 RE//
EHWO - Woensdrecht Rnla, Netherlands
Afstand tot: ZZW 144 km
Gewijzigd: 25-Nov-2020 03:25
Bewolking  
Bewolking  
   Wind: ZZO 7.4 km/h
Wind: ZZO 7.4 km/h
Temperatuur: 5°C
Voelt als: 3°C
Dauwpunt: 3°C
Vochtigheid: 87%
Barometer: 1015 hPa
Bewolking: Bewolking
Zicht: meer dan 10 km
Bewolking: Bewolking 16000 ft
EHWO 250225Z AUTO 16004KT 120V200 9999 OVC160 05/03 Q1015 BLU
EHEH - Eindhoven Rnlafb, Netherlands
Afstand tot: ZZO 146 km
Gewijzigd: 25-Nov-2020 03:25
Bewolking  
Bewolking  
   Wind: ZO 9.3 km/h
Wind: ZO 9.3 km/h
Temperatuur: 4°C
Voelt als: 2°C
Dauwpunt: 3°C
Vochtigheid: 93%
Barometer: 1016 hPa
Bewolking: Bewolking
Zicht: meer dan 10 km
Bewolking: Bewolking 19000 ft
EHEH 250225Z AUTO 14005KT 110V170 9999 OVC190 04/03 Q1016 BLU
EDLV - Niederrhein, Germany
Afstand tot: ZO 154 km
Gewijzigd: 23-Nov-2020 23:50
Verouderd
Grotendeels bewolkt  
Grotendeels bewolkt  
   Wind: Zuiden 11.1 km/h
Wind: Zuiden 11.1 km/h
Temperatuur: 7°C
Voelt als: 5°C
Dauwpunt: 5°C
Vochtigheid: 87%
Barometer: 1027 hPa
Bewolking: Grotendeels bewolkt
Zicht: meer dan 10 km
Bewolking: Grotendeels bewolkt 4900 ft
EDLV 232250Z 17006KT 9999 BKN049 07/05 Q1027
 

Script ontwikkeld door  Saratoga-weather.org Aangepast voor de template door  Weerstation Leuven

U vindt ons ook hier:

Vereniging voor Weerkunde en Klimatologie

Het Weer Aktueel

WOW Nederland KNMI

UK Metoffice

European Weather Network

WeatherCloud

Weather Underground

Benelux Weer Netwerk

AWEKAS

WeatherlinkIP

Citizen Weather Observer Program (CWOP)

HAMweather, WeatherForYou, PWS Weather

        

Apparatuur in gebruik:

Weerstation
Davis - Vantage Veu

Weerprogramma
Meteobridge

Weercomputer
Carambola2 - MeteroBridge Pro (black)

Webleverancier
1Eurohosting

Hardwareleverancier 1
Uurwerk- & Meteospecialist Vlasma

Hardwareleverancier 2
Weerhuisje

Davis - Vantage Veu

Meteobridge

Carambola2 - MeteroBridge Pro (black)

1Eurohosting

Uurwerk- & Meteospecialist Vlasma

Weerhuisje


Alles over het weer rondom het weerstation van Meteo Oudkarspel, vind je hier. Dus alles onder 1 dak.

Everything about the weather around the Meteo Oudkarspel weather station can be found here. So everything under one roof..

Dus kom regelmatig terug, So come back regularly.


# #---------------------- version history # 3.20 2015-10-12 release 2.8b version